createdAt,value
2019-04-01T00:03:29.379Z,8.60
2019-04-01T00:08:37.583Z,8.50
2019-04-01T00:13:43.040Z,8.40
2019-04-01T00:19:02.105Z,8.40
2019-04-01T00:23:53.967Z,8.30
2019-04-01T00:28:58.815Z,8.20
2019-04-01T00:34:03.791Z,8.10
2019-04-01T00:39:09.177Z,7.90
2019-04-01T00:44:14.004Z,7.90
2019-04-01T00:49:19.562Z,7.90
2019-04-01T00:54:24.294Z,7.90
2019-04-01T00:59:29.490Z,7.80
2019-04-01T01:04:34.307Z,7.70
2019-04-01T01:09:39.431Z,7.70
2019-04-01T01:14:44.025Z,7.70
2019-04-01T01:19:48.673Z,7.70
2019-04-01T01:24:53.178Z,7.60
2019-04-01T01:29:57.782Z,7.40
2019-04-01T01:35:02.359Z,7.30
2019-04-01T01:40:07.521Z,7.10
2019-04-01T01:45:11.845Z,6.90
2019-04-01T01:50:17.985Z,6.60
2019-04-01T01:55:22.418Z,6.30
2019-04-01T02:00:28.357Z,6.10
2019-04-01T02:05:33.217Z,5.70
2019-04-01T02:10:37.652Z,5.50
2019-04-01T02:15:42.208Z,5.40
2019-04-01T02:20:47.168Z,5.30
2019-04-01T02:25:52.014Z,5.40
2019-04-01T02:30:56.783Z,5.70
2019-04-01T02:36:02.404Z,5.70
2019-04-01T02:41:09.973Z,5.80
2019-04-01T02:46:20.087Z,5.90
2019-04-01T02:51:24.795Z,5.80
2019-04-01T02:56:29.309Z,5.50
2019-04-01T03:01:33.802Z,5.70
2019-04-01T03:06:38.138Z,5.80
2019-04-01T03:11:42.705Z,5.70
2019-04-01T03:16:47.441Z,5.40
2019-04-01T03:21:51.911Z,5.20
2019-04-01T03:26:56.648Z,4.90
2019-04-01T03:32:01.812Z,4.60
2019-04-01T03:37:06.827Z,4.20
2019-04-01T03:42:11.317Z,3.90
2019-04-01T03:47:16.353Z,3.60
2019-04-01T03:52:22.994Z,3.40
2019-04-01T03:57:28.004Z,3.20
2019-04-01T04:02:32.477Z,3.20
2019-04-01T04:07:39.576Z,3.10
2019-04-01T04:12:44.379Z,3.10
2019-04-01T04:17:48.921Z,3.10
2019-04-01T04:22:53.848Z,3.10
2019-04-01T04:27:58.443Z,3.10
2019-04-01T04:33:03.504Z,3.30
2019-04-01T04:38:08.205Z,3.60
2019-04-01T04:43:14.130Z,3.60
2019-04-01T04:48:19.621Z,3.70
2019-04-01T04:53:25.252Z,3.90
2019-04-01T04:58:30.118Z,3.80
2019-04-01T05:03:35.424Z,3.90
2019-04-01T05:08:40.581Z,4.10
2019-04-01T05:13:47.734Z,4.20
2019-04-01T05:18:52.927Z,4.30
2019-04-01T05:23:58.217Z,4.30
2019-04-01T05:29:04.776Z,4.30
2019-04-01T05:34:11.189Z,4.40
2019-04-01T05:39:16.662Z,4.40
2019-04-01T05:44:21.863Z,4.40
2019-04-01T05:49:26.987Z,4.50
2019-04-01T05:54:31.799Z,4.70
2019-04-01T05:59:36.133Z,4.90
2019-04-01T06:04:41.414Z,5.20
2019-04-01T06:09:46.042Z,5.50
2019-04-01T06:14:50.460Z,5.80
2019-04-01T06:19:55.356Z,6.20
2019-04-01T06:25:01.305Z,6.40
2019-04-01T06:30:06.816Z,6.70
2019-04-01T06:35:12.974Z,7.00
2019-04-01T06:40:18.085Z,7.10
2019-04-01T06:45:24.633Z,7.50
2019-04-01T06:50:29.431Z,9.20
2019-04-01T06:55:34.326Z,11.30
2019-04-01T07:00:40.327Z,13.60
2019-04-01T07:05:44.829Z,14.90
2019-04-01T07:10:49.469Z,15.30
2019-04-01T07:15:54.114Z,15.90
2019-04-01T07:20:59.004Z,16.60
2019-04-01T07:26:13.201Z,16.50
2019-04-01T07:31:18.664Z,16.20
2019-04-01T07:36:23.267Z,17.10
2019-04-01T07:41:27.822Z,17.60
2019-04-01T07:46:32.758Z,18.50
2019-04-01T07:51:39.944Z,18.00
2019-04-01T07:56:44.635Z,18.20
2019-04-01T08:01:52.660Z,17.50
2019-04-01T08:06:57.070Z,18.90
2019-04-01T08:12:02.259Z,18.70
2019-04-01T08:17:07.657Z,19.20
2019-04-01T08:22:14.806Z,18.60
2019-04-01T08:27:20.165Z,18.60
2019-04-01T08:32:26.898Z,18.60
2019-04-01T08:37:35.160Z,19.20
2019-04-01T08:42:40.135Z,18.90
2019-04-01T08:47:46.321Z,18.60
2019-04-01T08:52:51.654Z,18.50
2019-04-01T08:57:57.342Z,18.10
2019-04-01T09:03:02.122Z,18.70
2019-04-01T09:08:08.391Z,18.80
2019-04-01T09:13:14.185Z,18.90
2019-04-01T09:18:20.822Z,18.90
2019-04-01T09:23:25.298Z,18.80
2019-04-01T09:28:31.411Z,18.70
2019-04-01T09:33:43.431Z,19.50
2019-04-01T09:38:47.643Z,20.30
2019-04-01T09:43:52.332Z,20.50
2019-04-01T09:49:06.256Z,20.40
2019-04-01T09:54:11.257Z,19.60
2019-04-01T09:59:16.425Z,20.60
2019-04-01T10:04:21.305Z,19.00
2019-04-01T10:09:27.449Z,18.40
2019-04-01T10:14:32.564Z,18.40
2019-04-01T10:19:44.386Z,18.50
2019-04-01T10:24:50.922Z,18.00
2019-04-01T10:29:55.842Z,17.30
2019-04-01T10:35:00.858Z,16.90
2019-04-01T10:40:08.631Z,16.70
2019-04-01T10:45:14.098Z,16.90
2019-04-01T10:50:18.770Z,17.20
2019-04-01T10:55:23.950Z,17.80
2019-04-01T11:00:29.914Z,16.90
2019-04-01T11:05:43.437Z,17.10
2019-04-01T11:10:48.213Z,17.90
2019-04-01T11:15:52.835Z,17.70
2019-04-01T11:21:01.444Z,17.40
2019-04-01T11:26:06.556Z,17.80
2019-04-01T11:31:23.011Z,18.10
2019-04-01T11:36:30.759Z,18.10
2019-04-01T11:41:35.967Z,18.10
2019-04-01T11:46:45.284Z,17.90
2019-04-01T11:51:54.187Z,17.80
2019-04-01T11:57:02.864Z,17.70
2019-04-01T12:02:12.323Z,17.60
2019-04-01T12:07:26.699Z,17.70
2019-04-01T12:12:42.623Z,18.20
2019-04-01T12:17:49.825Z,18.30
2019-04-01T12:22:57.227Z,18.00
2019-04-01T12:28:08.338Z,18.00
2019-04-01T12:33:25.845Z,18.50
2019-04-01T12:38:39.308Z,18.30
2019-04-01T12:43:44.530Z,18.20
2019-04-01T12:49:19.906Z,18.40
2019-04-01T12:54:56.654Z,18.70
2019-04-01T13:00:02.055Z,18.50
2019-04-01T13:05:15.034Z,18.20
2019-04-01T13:10:20.380Z,18.40
2019-04-01T13:15:30.238Z,18.80
2019-04-01T13:20:38.369Z,18.90
2019-04-01T13:25:49.000Z,18.50
2019-04-01T13:31:04.023Z,19.00
2019-04-01T13:36:21.168Z,19.00
2019-04-01T13:41:41.531Z,18.90
2019-04-01T13:46:37.346Z,18.70
2019-04-01T13:51:45.329Z,18.40
2019-04-01T13:56:50.875Z,18.10
2019-04-01T14:02:05.924Z,18.30
2019-04-01T14:07:21.342Z,18.20
2019-04-01T14:12:28.266Z,18.90
2019-04-01T14:17:45.003Z,18.90
2019-04-01T14:23:03.210Z,19.20
2019-04-01T14:28:10.052Z,18.90
2019-04-01T14:33:27.361Z,18.80
2019-04-01T14:38:33.557Z,18.10
2019-04-01T14:43:40.319Z,17.70
2019-04-01T14:48:44.910Z,17.30
2019-04-01T14:53:49.544Z,17.00
2019-04-01T14:58:54.576Z,17.00
2019-04-01T15:04:02.486Z,17.10
2019-04-01T15:09:11.218Z,17.60
2019-04-01T15:14:16.490Z,17.90
2019-04-01T15:19:22.132Z,17.60
2019-04-01T15:24:27.188Z,17.20
2019-04-01T15:29:32.567Z,17.40
2019-04-01T15:34:37.922Z,17.70
2019-04-01T15:39:43.144Z,17.70
2019-04-01T15:44:48.073Z,18.10
2019-04-01T15:49:53.188Z,17.90
2019-04-01T15:54:59.414Z,17.90
2019-04-01T16:00:05.278Z,17.40
2019-04-01T16:05:13.783Z,16.90
2019-04-01T16:10:18.396Z,16.50
2019-04-01T16:15:25.930Z,16.50
2019-04-01T16:20:34.037Z,16.50
2019-04-01T16:25:38.957Z,16.70
2019-04-01T16:30:44.809Z,16.70
2019-04-01T16:35:49.622Z,16.50
2019-04-01T16:41:05.730Z,16.40
2019-04-01T16:46:12.652Z,16.20
2019-04-01T16:51:18.817Z,16.00
2019-04-01T16:56:24.130Z,16.00
2019-04-01T17:01:28.914Z,15.80
2019-04-01T17:06:39.023Z,15.70
2019-04-01T17:11:46.744Z,15.60
2019-04-01T17:16:52.669Z,15.40
2019-04-01T17:21:57.558Z,15.20
2019-04-01T17:27:14.126Z,15.00
2019-04-01T17:32:18.969Z,14.80
2019-04-01T17:37:26.475Z,14.40
2019-04-01T17:42:31.676Z,14.20
2019-04-01T17:47:39.407Z,13.90
2019-04-01T17:52:45.351Z,13.60
2019-04-01T17:57:53.301Z,13.30
2019-04-01T18:02:58.098Z,13.10
2019-04-01T18:08:03.023Z,12.80
2019-04-01T18:13:08.210Z,12.70
2019-04-01T18:18:26.176Z,12.80
2019-04-01T18:23:21.898Z,12.80
2019-04-01T18:28:27.752Z,12.70
2019-04-01T18:33:40.173Z,12.30
2019-04-01T18:38:46.200Z,11.90
2019-04-01T18:43:51.211Z,11.50
2019-04-01T18:49:01.243Z,11.20
2019-04-01T18:54:08.182Z,11.10
2019-04-01T18:59:13.228Z,10.80
2019-04-01T19:04:24.329Z,10.60
2019-04-01T19:09:28.901Z,10.40
2019-04-01T19:14:34.383Z,10.30
2019-04-01T19:19:40.440Z,10.30
2019-04-01T19:24:53.023Z,10.60
2019-04-01T19:30:02.085Z,10.70
2019-04-01T19:35:15.447Z,11.10
2019-04-01T19:40:20.941Z,11.20
2019-04-01T19:45:27.053Z,10.80
2019-04-01T19:50:31.860Z,10.50
2019-04-01T19:55:37.067Z,10.30
2019-04-01T20:00:42.981Z,10.10
2019-04-01T20:05:49.187Z,10.10
2019-04-01T20:10:54.530Z,10.20
2019-04-01T20:15:59.712Z,10.20
2019-04-01T20:21:04.461Z,10.40
2019-04-01T20:26:13.022Z,10.30
2019-04-01T20:31:17.912Z,10.10
2019-04-01T20:36:28.671Z,10.00
2019-04-01T20:41:29.985Z,9.80
2019-04-01T20:46:34.625Z,9.80
2019-04-01T20:51:40.888Z,9.70
2019-04-01T20:56:49.095Z,9.70
2019-04-01T21:01:54.070Z,9.60
2019-04-01T21:06:58.873Z,9.30
2019-04-01T21:12:04.599Z,9.40
2019-04-01T21:17:09.471Z,9.30
2019-04-01T21:22:14.363Z,9.40
2019-04-01T21:27:19.639Z,9.20
2019-04-01T21:32:24.492Z,9.10
2019-04-01T21:37:28.934Z,9.00
2019-04-01T21:42:36.224Z,9.10
2019-04-01T21:47:41.206Z,9.10
2019-04-01T21:52:46.737Z,9.20
2019-04-01T21:57:52.357Z,9.10
2019-04-01T22:02:56.849Z,9.00
2019-04-01T22:08:01.914Z,8.70
2019-04-01T22:13:06.465Z,8.60
2019-04-01T22:18:14.351Z,8.50
2019-04-01T22:23:19.457Z,8.40
2019-04-01T22:28:34.334Z,8.60
2019-04-01T22:33:39.220Z,8.50
2019-04-01T22:38:47.948Z,8.50
2019-04-01T22:43:54.293Z,8.50
2019-04-01T22:48:59.226Z,8.50
2019-04-01T22:54:04.083Z,8.60
2019-04-01T22:59:08.673Z,8.70
2019-04-01T23:04:13.174Z,8.70
2019-04-01T23:09:18.251Z,8.60
2019-04-01T23:14:23.280Z,8.60
2019-04-01T23:19:31.183Z,8.70
2019-04-01T23:24:36.612Z,8.80
2019-04-01T23:29:41.409Z,8.70
2019-04-01T23:34:46.354Z,8.70
2019-04-01T23:39:51.099Z,8.70
2019-04-01T23:44:59.907Z,8.50
2019-04-01T23:50:09.093Z,8.30
2019-04-01T23:55:14.475Z,8.10
